createdAt,value
2019-03-25T00:01:21.290Z,100432.83
2019-03-25T00:03:51.358Z,100429.67
2019-03-25T00:06:21.112Z,100433.41
2019-03-25T00:09:04.500Z,100425.64
2019-03-25T00:11:22.343Z,100428.15
2019-03-25T00:13:52.070Z,100421.59
2019-03-25T00:16:21.853Z,100424.19
2019-03-25T00:18:51.606Z,100421.44
2019-03-25T00:21:21.355Z,100421.28
2019-03-25T00:23:51.184Z,100426.38
2019-03-25T00:26:20.932Z,100428.41
2019-03-25T00:28:50.718Z,100435.70
2019-03-25T00:31:20.525Z,100434.80
2019-03-25T00:33:50.460Z,100430.84
2019-03-25T00:36:20.195Z,100439.42
2019-03-25T00:38:50.001Z,100433.76
2019-03-25T00:41:19.744Z,100431.90
2019-03-25T00:43:49.518Z,100427.20
2019-03-25T00:46:19.337Z,100420.65
2019-03-25T00:48:49.235Z,100417.98
2019-03-25T00:51:18.983Z,100412.24
2019-03-25T00:53:48.756Z,100411.35
2019-03-25T00:56:20.590Z,100407.39
2019-03-25T00:58:50.309Z,100413.78
2019-03-25T01:01:20.159Z,100416.21
2019-03-25T01:03:49.993Z,100409.66
2019-03-25T01:06:19.900Z,100402.70
2019-03-25T01:08:49.685Z,100407.23
2019-03-25T01:11:19.521Z,100406.27
2019-03-25T01:13:49.356Z,100410.48
2019-03-25T01:16:19.192Z,100399.56
2019-03-25T01:18:48.976Z,100404.98
2019-03-25T01:21:18.769Z,100407.84
2019-03-25T01:23:48.494Z,100408.09
2019-03-25T01:26:18.278Z,100290.45
2019-03-25T01:28:48.021Z,100408.00
2019-03-25T01:31:17.839Z,100297.48
2019-03-25T01:33:47.572Z,100411.23
2019-03-25T01:36:17.378Z,100408.98
2019-03-25T01:38:47.160Z,100411.40
2019-03-25T01:41:16.907Z,100408.25
2019-03-25T01:43:46.748Z,100405.41
2019-03-25T01:46:16.492Z,100398.38
2019-03-25T01:48:46.234Z,100399.59
2019-03-25T01:51:15.964Z,100399.91
2019-03-25T01:53:45.727Z,100405.80
2019-03-25T01:56:15.501Z,100402.25
2019-03-25T01:58:45.208Z,100398.37
2019-03-25T02:01:14.994Z,100392.39
2019-03-25T02:03:44.768Z,100399.98
2019-03-25T02:06:14.522Z,100402.81
2019-03-25T02:08:44.570Z,100395.77
2019-03-25T02:11:14.349Z,100410.31
2019-03-25T02:13:44.079Z,100405.38
2019-03-25T02:16:14.287Z,100406.19
2019-03-25T02:18:44.032Z,100410.95
2019-03-25T02:21:14.681Z,100405.62
2019-03-25T02:23:44.491Z,100401.66
2019-03-25T02:26:14.239Z,100396.41
2019-03-25T02:28:43.957Z,100398.02
2019-03-25T02:31:13.962Z,100403.59
2019-03-25T02:33:43.686Z,100402.53
2019-03-25T02:36:13.505Z,100400.75
2019-03-25T02:38:43.304Z,100403.42
2019-03-25T02:41:13.070Z,100401.88
2019-03-25T02:43:42.825Z,100405.09
2019-03-25T02:46:12.659Z,100397.17
2019-03-25T02:48:42.448Z,100401.37
2019-03-25T02:51:12.419Z,100394.25
2019-03-25T02:53:42.177Z,100395.28
2019-03-25T02:56:11.908Z,100394.71
2019-03-25T02:58:41.638Z,100401.48
2019-03-25T03:01:11.462Z,100401.41
2019-03-25T03:03:41.192Z,100402.61
2019-03-25T03:06:10.919Z,100404.70
2019-03-25T03:08:40.822Z,100406.23
2019-03-25T03:11:10.928Z,100405.74
2019-03-25T03:13:40.669Z,100407.44
2019-03-25T03:16:10.491Z,100411.00
2019-03-25T03:18:40.244Z,100412.29
2019-03-25T03:21:10.001Z,100412.69
2019-03-25T03:23:40.082Z,100401.95
2019-03-25T03:26:09.811Z,100399.20
2019-03-25T03:28:39.541Z,100399.11
2019-03-25T03:31:09.378Z,100396.35
2019-03-25T03:33:41.150Z,100414.92
2019-03-25T03:36:10.891Z,100414.21
2019-03-25T03:38:40.730Z,100410.16
2019-03-25T03:41:10.470Z,100407.49
2019-03-25T03:43:40.220Z,100410.97
2019-03-25T03:46:10.052Z,100400.95
2019-03-25T03:48:39.786Z,100403.44
2019-03-25T03:51:09.544Z,100411.11
2019-03-25T03:53:39.304Z,100416.67
2019-03-25T03:56:13.263Z,100420.86
2019-03-25T03:58:42.820Z,100412.22
2019-03-25T04:01:12.593Z,100426.26
2019-03-25T04:03:42.321Z,100422.38
2019-03-25T04:06:12.088Z,100431.25
2019-03-25T04:08:41.904Z,100431.16
2019-03-25T04:11:11.711Z,100421.05
2019-03-25T04:13:41.755Z,100417.41
2019-03-25T04:16:11.521Z,100418.61
2019-03-25T04:18:41.248Z,100419.41
2019-03-25T04:21:10.979Z,100422.08
2019-03-25T04:23:40.807Z,100420.30
2019-03-25T04:26:10.556Z,100419.89
2019-03-25T04:28:40.290Z,100420.70
2019-03-25T04:31:10.060Z,100428.45
2019-03-25T04:33:39.804Z,100431.83
2019-03-25T04:36:09.637Z,100436.11
2019-03-25T04:38:39.497Z,100444.34
2019-03-25T04:41:09.265Z,100445.64
2019-03-25T04:43:39.017Z,100444.75
2019-03-25T04:46:08.832Z,100446.84
2019-03-25T04:48:38.577Z,100448.84
2019-03-25T04:51:08.903Z,100447.06
2019-03-25T04:53:38.732Z,100458.19
2019-03-25T04:56:08.467Z,100450.36
2019-03-25T04:58:38.212Z,100463.27
2019-03-25T05:01:08.066Z,100459.30
2019-03-25T05:03:37.799Z,100462.69
2019-03-25T05:06:07.631Z,100462.20
2019-03-25T05:08:37.413Z,100464.28
2019-03-25T05:11:07.376Z,100465.36
2019-03-25T05:13:37.136Z,100456.63
2019-03-25T05:16:07.262Z,100453.47
2019-03-25T05:18:37.009Z,100453.06
2019-03-25T05:21:06.867Z,100457.44
2019-03-25T05:23:36.810Z,100458.41
2019-03-25T05:26:06.644Z,100454.63
2019-03-25T05:28:36.374Z,100469.32
2019-03-25T05:31:06.180Z,100474.48
2019-03-25T05:33:35.917Z,100487.09
2019-03-25T05:36:05.684Z,100488.07
2019-03-25T05:38:35.447Z,100477.03
2019-03-25T05:41:05.277Z,100478.41
2019-03-25T05:43:34.996Z,100485.36
2019-03-25T05:46:04.834Z,100492.00
2019-03-25T05:48:34.568Z,100495.34
2019-03-25T05:51:04.316Z,100498.59
2019-03-25T05:53:34.090Z,100501.94
2019-03-25T05:56:03.811Z,100501.40
2019-03-25T05:58:33.608Z,100503.85
2019-03-25T06:01:03.602Z,100513.34
2019-03-25T06:03:33.327Z,100517.17
2019-03-25T06:06:03.249Z,100521.66
2019-03-25T06:08:33.150Z,100519.25
2019-03-25T06:11:02.972Z,100522.09
2019-03-25T06:13:32.728Z,100529.54
2019-03-25T06:16:02.693Z,100537.78
2019-03-25T06:18:32.623Z,100537.88
2019-03-25T06:21:02.402Z,100536.67
2019-03-25T06:23:32.168Z,100539.74
2019-03-25T06:26:01.866Z,100558.11
2019-03-25T06:28:31.688Z,100561.76
2019-03-25T06:31:01.466Z,100559.61
2019-03-25T06:33:31.193Z,100562.54
2019-03-25T06:36:00.938Z,100559.00
2019-03-25T06:38:30.714Z,100564.29
2019-03-25T06:41:00.463Z,100563.94
2019-03-25T06:43:30.523Z,100563.45
2019-03-25T06:46:00.328Z,100567.52
2019-03-25T06:48:30.146Z,100570.11
2019-03-25T06:50:59.923Z,100573.68
2019-03-25T06:53:29.812Z,100577.17
2019-03-25T06:55:59.648Z,100589.39
2019-03-25T06:58:29.464Z,100596.44
2019-03-25T07:01:00.137Z,100605.27
2019-03-25T07:03:29.986Z,100603.65
2019-03-25T07:06:02.115Z,100608.51
2019-03-25T07:08:31.936Z,100621.38
2019-03-25T07:11:01.772Z,100625.02
2019-03-25T07:13:31.488Z,100633.19
2019-03-25T07:16:01.388Z,100632.11
2019-03-25T07:18:31.250Z,100643.19
2019-03-25T07:21:01.555Z,100645.61
2019-03-25T07:23:31.366Z,100657.86
2019-03-25T07:26:01.152Z,100656.16
2019-03-25T07:28:30.942Z,100662.56
2019-03-25T07:31:02.087Z,100661.59
2019-03-25T07:33:34.116Z,100669.80
2019-03-25T07:36:03.886Z,100556.13
2019-03-25T07:38:34.032Z,100675.81
2019-03-25T07:41:03.802Z,100680.59
2019-03-25T07:43:33.578Z,100688.05
2019-03-25T07:46:03.406Z,100690.97
2019-03-25T07:48:34.463Z,100702.31
2019-03-25T07:51:04.254Z,100671.28
2019-03-25T07:53:34.080Z,100705.16
2019-03-25T07:56:05.234Z,100714.39
2019-03-25T07:58:34.959Z,100618.05
2019-03-25T08:02:51.191Z,100730.68
2019-03-25T08:05:21.066Z,100733.66
2019-03-25T08:11:52.845Z,100739.01
2019-03-25T08:17:05.608Z,100742.99
2019-03-25T08:19:35.401Z,100740.22
2019-03-25T08:22:05.588Z,100744.95
2019-03-25T08:24:36.425Z,100753.80
2019-03-25T08:27:06.683Z,100755.37
2019-03-25T08:29:36.432Z,100757.20
2019-03-25T08:32:06.217Z,100767.06
2019-03-25T08:34:36.075Z,100778.59
2019-03-25T08:37:05.946Z,100786.67
2019-03-25T08:39:35.867Z,100797.44
2019-03-25T08:42:05.794Z,100793.94
2019-03-25T08:44:35.813Z,100796.45
2019-03-25T08:47:05.702Z,100807.97
2019-03-25T08:49:35.867Z,100754.54
2019-03-25T08:52:05.755Z,100812.98
2019-03-25T08:54:37.839Z,100826.14
2019-03-25T08:57:07.090Z,100839.98
2019-03-25T08:59:36.844Z,100825.94
2019-03-25T09:02:06.672Z,100827.17
2019-03-25T09:04:36.466Z,100822.02
2019-03-25T09:07:06.261Z,100829.50
2019-03-25T09:09:36.144Z,100828.59
2019-03-25T09:12:06.029Z,100837.31
2019-03-25T09:14:35.806Z,100841.13
2019-03-25T09:17:05.631Z,100856.20
2019-03-25T09:19:35.394Z,100852.28
2019-03-25T09:22:05.501Z,100850.50
2019-03-25T09:24:37.499Z,100856.09
2019-03-25T09:27:07.353Z,100855.41
2019-03-25T09:29:37.131Z,100860.64
2019-03-25T09:32:07.869Z,100859.30
2019-03-25T09:34:37.710Z,100847.70
2019-03-25T09:37:07.691Z,100836.23
2019-03-25T09:39:37.604Z,100850.16
2019-03-25T09:42:07.493Z,100843.31
2019-03-25T09:44:37.412Z,100852.77
2019-03-25T09:47:08.200Z,100851.34
2019-03-25T09:49:38.000Z,100842.58
2019-03-25T09:52:07.796Z,100842.17
2019-03-25T09:54:37.649Z,100843.44
2019-03-25T09:57:07.453Z,100849.57
2019-03-25T09:59:37.197Z,100845.98
2019-03-25T10:02:07.053Z,100767.27
2019-03-25T10:04:36.892Z,100849.91
2019-03-25T10:07:06.697Z,100852.55
2019-03-25T10:09:36.576Z,100856.09
2019-03-25T10:12:06.429Z,100863.44
2019-03-25T10:14:36.244Z,100851.42
2019-03-25T10:17:06.039Z,100868.09
2019-03-25T10:19:35.859Z,100866.59
2019-03-25T10:22:05.656Z,100872.35
2019-03-25T10:24:35.453Z,100874.10
2019-03-25T10:27:05.436Z,100872.94
2019-03-25T10:29:35.240Z,100878.37
2019-03-25T10:32:05.348Z,100870.06
2019-03-25T10:34:35.103Z,100877.30
2019-03-25T10:37:04.953Z,100780.14
2019-03-25T10:39:34.830Z,100879.44
2019-03-25T10:42:04.604Z,100882.41
2019-03-25T10:44:34.386Z,100870.97
2019-03-25T10:47:04.351Z,100877.42
2019-03-25T10:49:34.163Z,100878.74
2019-03-25T10:52:03.957Z,100887.64
2019-03-25T10:54:33.934Z,100887.94
2019-03-25T10:57:03.753Z,100895.86
2019-03-25T10:59:33.509Z,100903.84
2019-03-25T11:02:03.606Z,100904.91
2019-03-25T11:04:33.540Z,100901.27
2019-03-25T11:07:03.497Z,100899.98
2019-03-25T11:09:33.312Z,100900.71
2019-03-25T11:12:03.071Z,100893.73
2019-03-25T11:14:32.838Z,100898.15
2019-03-25T11:17:02.699Z,100905.27
2019-03-25T11:19:32.489Z,100895.78
2019-03-25T11:22:02.261Z,100896.39
2019-03-25T11:24:32.063Z,100901.77
2019-03-25T11:27:01.879Z,100906.81
2019-03-25T11:29:31.963Z,100910.88
2019-03-25T11:32:01.772Z,100909.30
2019-03-25T11:34:31.543Z,100911.80
2019-03-25T11:37:01.351Z,100921.92
2019-03-25T11:39:31.208Z,100924.45
2019-03-25T11:42:01.048Z,100920.29
2019-03-25T11:44:30.795Z,100922.35
2019-03-25T11:47:00.684Z,100917.38
2019-03-25T11:49:30.597Z,100922.72
2019-03-25T11:52:00.337Z,100930.11
2019-03-25T11:54:30.391Z,100929.11
2019-03-25T11:57:00.129Z,100921.68
2019-03-25T11:59:29.872Z,100926.09
2019-03-25T12:01:59.747Z,100927.92
2019-03-25T12:04:29.503Z,100930.80
2019-03-25T12:06:59.222Z,100932.13
2019-03-25T12:09:29.036Z,100940.54
2019-03-25T12:11:58.818Z,100937.90
2019-03-25T12:14:28.655Z,100940.34
2019-03-25T12:16:58.436Z,100932.68
2019-03-25T12:19:28.206Z,100937.09
2019-03-25T12:21:57.948Z,100932.13
2019-03-25T12:24:27.712Z,100936.73
2019-03-25T12:26:57.511Z,100930.77
2019-03-25T12:29:30.431Z,100934.80
2019-03-25T12:31:59.111Z,100926.16
2019-03-25T12:34:28.976Z,100935.74
2019-03-25T12:36:58.664Z,100943.52
2019-03-25T12:39:28.502Z,100933.64
2019-03-25T12:41:58.231Z,100936.42
2019-03-25T12:44:28.011Z,100940.69
2019-03-25T12:46:57.791Z,100938.36
2019-03-25T12:49:27.535Z,100939.71
2019-03-25T12:51:57.305Z,100938.19
2019-03-25T12:54:27.111Z,100941.84
2019-03-25T12:56:56.838Z,100942.77
2019-03-25T12:59:26.658Z,100938.86
2019-03-25T13:01:56.451Z,100937.09
2019-03-25T13:04:26.229Z,100941.95
2019-03-25T13:06:55.963Z,100941.95
2019-03-25T13:09:25.769Z,100936.20
2019-03-25T13:11:55.512Z,100937.45
2019-03-25T13:14:25.294Z,100941.80
2019-03-25T13:16:55.095Z,100945.18
2019-03-25T13:19:24.822Z,100950.59
2019-03-25T13:21:54.641Z,100951.91
2019-03-25T13:24:24.489Z,100953.52
2019-03-25T13:26:54.636Z,100956.25
2019-03-25T13:29:24.473Z,100954.01
2019-03-25T13:31:54.287Z,100952.31
2019-03-25T13:34:24.542Z,100950.59
2019-03-25T13:36:54.327Z,100958.63
2019-03-25T13:39:24.252Z,100959.02
2019-03-25T13:41:54.030Z,100959.45
2019-03-25T13:44:23.836Z,100962.08
2019-03-25T13:46:54.076Z,100964.67
2019-03-25T13:49:23.883Z,100962.86
2019-03-25T13:51:53.664Z,100963.25
2019-03-25T13:54:23.514Z,100966.83
2019-03-25T13:56:53.311Z,100972.95
2019-03-25T13:59:23.101Z,100970.31
2019-03-25T14:01:53.001Z,100972.07
2019-03-25T14:04:22.790Z,100972.09
2019-03-25T14:06:52.559Z,100971.52
2019-03-25T14:09:22.396Z,100966.86
2019-03-25T14:11:52.212Z,100969.69
2019-03-25T14:14:22.023Z,100962.92
2019-03-25T14:16:51.825Z,100976.44
2019-03-25T14:19:21.824Z,100972.92
2019-03-25T14:21:51.800Z,100979.37
2019-03-25T14:24:21.691Z,100980.14
2019-03-25T14:26:51.544Z,100980.85
2019-03-25T14:29:21.489Z,100979.97
2019-03-25T14:31:51.376Z,100984.78
2019-03-25T14:34:21.242Z,100976.24
2019-03-25T14:36:51.471Z,100993.69
2019-03-25T14:39:21.353Z,100984.39
2019-03-25T14:41:51.156Z,100983.81
2019-03-25T14:44:21.026Z,100980.31
2019-03-25T14:46:50.905Z,100977.74
2019-03-25T14:49:20.694Z,100989.79
2019-03-25T14:51:51.134Z,100987.05
2019-03-25T14:54:20.957Z,100989.59
2019-03-25T14:56:50.734Z,100994.13
2019-03-25T14:59:20.877Z,100994.59
2019-03-25T15:01:50.701Z,100994.19
2019-03-25T15:04:20.536Z,100995.12
2019-03-25T15:06:50.490Z,100986.53
2019-03-25T15:09:20.330Z,100990.06
2019-03-25T15:11:50.104Z,100998.48
2019-03-25T15:14:20.027Z,101000.95
2019-03-25T15:16:49.941Z,101013.52
2019-03-25T15:19:19.733Z,101022.25
2019-03-25T15:21:49.641Z,101012.95
2019-03-25T15:24:19.476Z,101019.45
2019-03-25T15:26:49.600Z,101017.73
2019-03-25T15:29:19.647Z,101015.05
2019-03-25T15:31:49.469Z,101015.48
2019-03-25T15:34:19.300Z,101019.56
2019-03-25T15:36:49.419Z,101016.48
2019-03-25T15:39:19.397Z,101017.67
2019-03-25T15:41:49.246Z,101019.84
2019-03-25T15:44:19.255Z,101015.91
2019-03-25T15:46:55.728Z,101021.26
2019-03-25T15:49:21.145Z,101027.15
2019-03-25T15:51:51.000Z,101022.45
2019-03-25T15:54:20.960Z,101035.45
2019-03-25T15:56:50.849Z,101038.14
2019-03-25T15:59:20.667Z,101040.20
2019-03-25T16:01:50.542Z,101035.67
2019-03-25T16:04:20.513Z,101035.06
2019-03-25T16:06:50.632Z,101048.61
2019-03-25T16:09:20.517Z,101048.64
2019-03-25T16:11:50.537Z,101052.09
2019-03-25T16:14:20.380Z,101052.70
2019-03-25T16:16:50.293Z,101057.01
2019-03-25T16:19:20.321Z,101059.23
2019-03-25T16:21:50.115Z,101054.48
2019-03-25T16:24:20.315Z,101058.41
2019-03-25T16:26:50.335Z,101054.08
2019-03-25T16:29:20.171Z,101053.42
2019-03-25T16:31:50.364Z,101057.44
2019-03-25T16:34:20.613Z,101054.09
2019-03-25T16:36:50.500Z,101058.14
2019-03-25T16:39:20.376Z,101064.44
2019-03-25T16:41:50.418Z,101059.98
2019-03-25T16:44:20.270Z,101061.67
2019-03-25T16:46:50.251Z,101067.09
2019-03-25T16:49:21.230Z,101070.03
2019-03-25T16:51:51.010Z,101064.09
2019-03-25T16:54:20.864Z,101076.64
2019-03-25T16:56:50.977Z,101069.95
2019-03-25T16:59:20.900Z,101075.14
2019-03-25T17:01:50.857Z,101069.97
2019-03-25T17:04:20.992Z,101066.97
2019-03-25T17:06:50.789Z,101068.50
2019-03-25T17:09:20.607Z,101067.95
2019-03-25T17:11:50.642Z,101067.07
2019-03-25T17:14:20.434Z,101070.91
2019-03-25T17:16:50.323Z,101074.00
2019-03-25T17:19:20.185Z,101079.27
2019-03-25T17:21:58.093Z,101076.38
2019-03-25T17:24:21.946Z,101079.11
2019-03-25T17:26:51.758Z,101081.84
2019-03-25T17:29:21.602Z,101079.56
2019-03-25T17:31:51.688Z,101093.45
2019-03-25T17:34:21.514Z,101080.14
2019-03-25T17:36:51.518Z,101079.28
2019-03-25T17:39:21.667Z,101075.56
2019-03-25T17:41:51.687Z,101083.49
2019-03-25T17:44:21.665Z,101076.69
2019-03-25T17:46:51.719Z,101078.58
2019-03-25T17:49:21.633Z,101085.38
2019-03-25T17:51:51.606Z,101081.58
2019-03-25T17:54:21.476Z,101087.45
2019-03-25T17:56:51.242Z,101082.34
2019-03-25T17:59:21.022Z,101084.30
2019-03-25T18:01:50.961Z,101079.58
2019-03-25T18:04:20.880Z,101074.30
2019-03-25T18:06:50.845Z,101083.82
2019-03-25T18:09:20.837Z,101073.22
2019-03-25T18:11:50.655Z,101079.49
2019-03-25T18:14:20.534Z,101079.74
2019-03-25T18:16:50.687Z,101062.54
2019-03-25T18:19:23.093Z,101081.39
2019-03-25T18:21:53.281Z,101087.58
2019-03-25T18:24:23.288Z,101079.88
2019-03-25T18:26:53.216Z,101084.59
2019-03-25T18:29:24.316Z,101082.81
2019-03-25T18:31:54.258Z,101050.77
2019-03-25T18:34:24.108Z,101079.48
2019-03-25T18:36:54.090Z,101079.11
2019-03-25T18:39:24.335Z,101077.97
2019-03-25T18:41:56.093Z,101069.84
2019-03-25T18:44:25.891Z,101066.11
2019-03-25T18:47:00.829Z,101057.81
2019-03-25T18:49:30.930Z,101056.11
2019-03-25T18:52:01.899Z,100962.71
2019-03-25T18:54:32.184Z,101053.67
2019-03-25T18:57:02.124Z,101055.87
2019-03-25T18:59:32.199Z,101048.97
2019-03-25T19:02:02.338Z,101053.19
2019-03-25T19:04:32.411Z,101048.63
2019-03-25T19:07:08.223Z,101050.74
2019-03-25T19:09:38.096Z,101045.38
2019-03-25T19:12:07.947Z,101046.52
2019-03-25T19:14:37.981Z,101048.13
2019-03-25T19:17:07.819Z,101047.48
2019-03-25T19:19:37.671Z,101054.29
2019-03-25T19:22:07.829Z,101051.20
2019-03-25T19:24:37.722Z,101053.72
2019-03-25T19:27:07.507Z,101048.44
2019-03-25T19:29:38.608Z,101049.57
2019-03-25T19:32:08.730Z,101052.16
2019-03-25T19:34:38.559Z,101051.51
2019-03-25T19:37:08.928Z,101048.58
2019-03-25T19:39:38.840Z,101047.42
2019-03-25T19:42:08.704Z,101051.06
2019-03-25T19:44:38.702Z,101053.17
2019-03-25T19:47:08.700Z,101049.02
2019-03-25T19:49:38.608Z,101042.12
2019-03-25T19:52:09.569Z,101029.72
2019-03-25T19:54:39.543Z,101028.27
2019-03-25T19:57:09.423Z,101029.23
2019-03-25T19:59:39.280Z,101028.66
2019-03-25T20:02:18.316Z,101026.70
2019-03-25T20:04:40.802Z,101022.86
2019-03-25T20:07:10.569Z,101026.00
2019-03-25T20:09:42.439Z,101028.38
2019-03-25T20:12:12.350Z,101026.09
2019-03-25T20:14:42.207Z,101022.84
2019-03-25T20:17:12.047Z,101021.59
2019-03-25T20:19:42.270Z,101018.48
2019-03-25T20:22:12.169Z,101017.32
2019-03-25T20:24:41.999Z,101023.63
2019-03-25T20:27:12.036Z,101020.95
2019-03-25T20:29:42.060Z,101008.78
2019-03-25T20:32:11.891Z,101007.17
2019-03-25T20:34:41.879Z,101008.64
2019-03-25T20:37:11.781Z,101013.66
2019-03-25T20:39:41.611Z,101006.28
2019-03-25T20:42:11.684Z,101004.09
2019-03-25T20:44:43.612Z,100997.52
2019-03-25T20:47:13.566Z,100993.63
2019-03-25T20:49:45.455Z,100996.22
2019-03-25T20:52:15.590Z,100989.87
2019-03-25T20:54:45.428Z,100983.94
2019-03-25T20:57:15.298Z,100984.08
2019-03-25T20:59:46.490Z,100982.60
2019-03-25T21:02:16.312Z,100975.80
2019-03-25T21:04:46.358Z,100978.94
2019-03-25T21:07:16.249Z,100976.08
2019-03-25T21:09:46.057Z,100963.56
2019-03-25T21:12:16.088Z,100959.73
2019-03-25T21:14:46.018Z,100963.27
2019-03-25T21:17:15.835Z,100957.89
2019-03-25T21:19:45.830Z,100947.04
2019-03-25T21:22:16.104Z,100939.17
2019-03-25T21:24:46.098Z,100937.88
2019-03-25T21:27:20.084Z,100939.98
2019-03-25T21:29:49.961Z,100925.05
2019-03-25T21:32:20.020Z,100926.27
2019-03-25T21:34:50.154Z,100925.28
2019-03-25T21:37:20.018Z,100923.80
2019-03-25T21:39:49.880Z,100922.42
2019-03-25T21:42:19.858Z,100926.62
2019-03-25T21:44:49.702Z,100917.64
2019-03-25T21:47:19.521Z,100903.30
2019-03-25T21:49:49.661Z,100904.51
2019-03-25T21:52:19.534Z,100903.20
2019-03-25T21:54:49.419Z,100899.41
2019-03-25T21:57:19.408Z,100900.39
2019-03-25T21:59:49.252Z,100890.20
2019-03-25T22:02:19.012Z,100886.81
2019-03-25T22:04:49.205Z,100891.10
2019-03-25T22:07:18.986Z,100884.53
2019-03-25T22:09:48.771Z,100874.58
2019-03-25T22:12:18.687Z,100877.34
2019-03-25T22:14:48.528Z,100864.47
2019-03-25T22:17:18.310Z,100864.96
2019-03-25T22:19:48.358Z,100864.65
2019-03-25T22:22:18.167Z,100864.96
2019-03-25T22:24:47.957Z,100851.43
2019-03-25T22:27:18.034Z,100850.84
2019-03-25T22:29:47.834Z,100841.38
2019-03-25T22:32:17.613Z,100836.34
2019-03-25T22:34:47.543Z,100843.04
2019-03-25T22:37:17.550Z,100832.41
2019-03-25T22:39:47.341Z,100836.21
2019-03-25T22:42:17.413Z,100823.98
2019-03-25T22:44:47.185Z,100821.30
2019-03-25T22:47:17.010Z,100809.87
2019-03-25T22:49:47.059Z,100807.36
2019-03-25T22:52:16.846Z,100796.52
2019-03-25T22:54:46.632Z,100791.25
2019-03-25T22:57:17.007Z,100788.66
2019-03-25T22:59:46.772Z,100790.98
2019-03-25T23:02:16.581Z,100778.66
2019-03-25T23:04:46.729Z,100788.44
2019-03-25T23:07:16.596Z,100787.06
2019-03-25T23:09:46.413Z,100783.98
2019-03-25T23:12:16.497Z,100776.44
2019-03-25T23:14:46.279Z,100774.66
2019-03-25T23:17:16.071Z,100771.17
2019-03-25T23:19:46.160Z,100770.68
2019-03-25T23:22:16.077Z,100762.91
2019-03-25T23:24:45.965Z,100759.84
2019-03-25T23:27:15.791Z,100753.05
2019-03-25T23:29:45.900Z,100755.55
2019-03-25T23:32:15.667Z,100739.70
2019-03-25T23:34:45.535Z,100739.38
2019-03-25T23:37:15.397Z,100731.21
2019-03-25T23:39:45.267Z,100717.86
2019-03-25T23:42:15.093Z,100719.73
2019-03-25T23:44:44.960Z,100720.13
2019-03-25T23:47:14.738Z,100711.65
2019-03-25T23:49:44.534Z,100710.03
2019-03-25T23:52:14.507Z,100704.22
2019-03-25T23:54:44.368Z,100697.26
2019-03-25T23:57:14.193Z,100695.64
2019-03-25T23:59:44.347Z,100680.74
